Time;durP1;ratioP1;P1;durP2;ratioP2;P2;SDS_P1;SDS_P2;PMS_P1;PMS_P2;Temp;Humidity;BMP_temperature;BMP_pressure;BME280_temperature;BME280_humidity;BME280_pressure;Samples;Min_cycle;Max_cycle;Signal;HPM_P1;HPM_P2
2021/07/08 00:01:57;;;;;;;9.75;8.60;;;;;;;;;;5001761;28;20138;-48
2021/07/08 00:04:24;;;;;;;9.85;8.85;;;;;;;;;;5012375;28;20053;-45
2021/07/08 00:06:51;;;;;;;14.32;9.93;;;;;;;;;;5013262;28;20038;-45
2021/07/08 00:09:17;;;;;;;10.13;8.65;;;;;;;;;;5012850;28;20042;-43
2021/07/08 00:11:44;;;;;;;10.32;8.73;;;;;;;;;;5009681;28;20129;-46
2021/07/08 00:14:11;;;;;;;10.20;8.73;;;;;;;;;;5011851;28;20121;-45
2021/07/08 00:16:38;;;;;;;9.80;8.77;;;;;;;;;;5012511;28;20137;-45
2021/07/08 00:19:06;;;;;;;9.13;7.90;;;;;;;;;;5012092;28;20041;-48
2021/07/08 00:21:32;;;;;;;12.45;9.32;;;;;;;;;;5010579;28;20038;-43
2021/07/08 00:23:59;;;;;;;8.90;8.02;;;;;;;;;;4999792;28;20046;-44
2021/07/08 00:26:26;;;;;;;13.07;7.55;;;;;;;;;;4997374;28;20133;-44
2021/07/08 00:28:52;;;;;;;10.30;7.32;;;;;;;;;;5011572;28;20076;-42
2021/07/08 00:31:20;;;;;;;9.15;8.02;;;;;;;;;;5011005;28;20046;-44
2021/07/08 00:33:48;;;;;;;8.95;7.22;;;;;;;;;;5009127;28;20050;-43
2021/07/08 00:36:14;;;;;;;11.68;7.50;;;;;;;;;;5013146;28;20440;-44
2021/07/08 00:38:41;;;;;;;9.23;7.80;;;;;;;;;;5011007;28;20046;-47
2021/07/08 00:41:08;;;;;;;9.75;7.07;;;;;;;;;;4996112;28;20129;-44
2021/07/08 00:43:35;;;;;;;8.48;7.57;;;;;;;;;;4995831;28;20219;-46
2021/07/08 00:46:04;;;;;;;8.95;7.60;;;;;;;;;;5011326;28;21718;-44
2021/07/08 00:48:31;;;;;;;8.60;7.05;;;;;;;;;;5011256;28;20046;-44
2021/07/08 00:50:58;;;;;;;9.15;7.28;;;;;;;;;;5005627;28;20052;-42
2021/07/08 00:53:25;;;;;;;7.95;7.00;;;;;;;;;;5004115;28;20057;-42
2021/07/08 00:56:02;;;;;;;7.63;6.43;;;;;;;;;;4992577;28;20135;-45
2021/07/08 00:58:29;;;;;;;8.38;6.90;;;;;;;;;;4996748;28;20134;-45
2021/07/08 01:00:56;;;;;;;8.23;6.07;;;;;;;;;;5010677;28;20034;-45
2021/07/08 01:03:23;;;;;;;6.93;6.25;;;;;;;;;;4994322;28;20042;-43
2021/07/08 01:05:51;;;;;;;8.00;5.40;;;;;;;;;;5012360;28;20544;-43
2021/07/08 01:08:18;;;;;;;7.00;6.30;;;;;;;;;;5011176;28;20057;-44
2021/07/08 01:10:45;;;;;;;7.00;6.30;;;;;;;;;;5009438;28;20482;-42
2021/07/08 01:13:13;;;;;;;6.22;5.57;;;;;;;;;;5010460;28;20124;-45
2021/07/08 01:15:40;;;;;;;10.52;5.90;;;;;;;;;;5012402;28;20627;-43
2021/07/08 01:18:07;;;;;;;6.95;6.25;;;;;;;;;;5011742;28;20115;-44
2021/07/08 01:20:34;;;;;;;6.53;5.30;;;;;;;;;;5005824;28;20061;-45
2021/07/08 01:23:02;;;;;;;6.20;5.25;;;;;;;;;;5005548;28;20047;-42
2021/07/08 01:25:33;;;;;;;6.43;5.70;;;;;;;;;;5002531;28;20078;-42
2021/07/08 01:28:00;;;;;;;7.47;6.10;;;;;;;;;;5010501;28;20471;-42
2021/07/08 01:30:28;;;;;;;6.28;5.63;;;;;;;;;;5007599;28;20179;-43
2021/07/08 01:32:57;;;;;;;7.40;5.72;;;;;;;;;;5026627;22;20038;-46
2021/07/08 01:35:24;;;;;;;8.93;6.13;;;;;;;;;;5023758;28;20450;-44
2021/07/08 01:37:51;;;;;;;8.63;5.65;;;;;;;;;;5018767;28;20503;-46
2021/07/08 01:40:18;;;;;;;6.65;5.93;;;;;;;;;;5011891;28;20049;-45
2021/07/08 01:42:45;;;;;;;7.00;6.25;;;;;;;;;;5007620;28;20042;-45
2021/07/08 01:45:13;;;;;;;7.20;6.22;;;;;;;;;;5012003;28;20129;-45
2021/07/08 01:47:42;;;;;;;6.90;6.20;;;;;;;;;;5010405;28;20052;-43
2021/07/08 01:50:11;;;;;;;8.85;6.40;;;;;;;;;;4992792;28;20519;-41
2021/07/08 01:52:38;;;;;;;7.10;6.25;;;;;;;;;;4990453;28;20046;-43
2021/07/08 01:55:05;;;;;;;7.80;6.13;;;;;;;;;;4971779;28;20043;-41
2021/07/08 01:57:31;;;;;;;6.38;5.10;;;;;;;;;;4975561;28;20069;-42
2021/07/08 01:59:58;;;;;;;7.40;5.65;;;;;;;;;;4990695;28;20108;-42
2021/07/08 02:02:27;;;;;;;8.63;6.10;;;;;;;;;;4984008;28;20046;-42
2021/07/08 02:04:56;;;;;;;6.55;5.75;;;;;;;;;;5009739;28;20041;-45
2021/07/08 02:07:23;;;;;;;7.32;5.80;;;;;;;;;;5003701;28;20033;-44
2021/07/08 02:09:49;;;;;;;7.50;5.57;;;;;;;;;;4992869;28;20140;-44
2021/07/08 02:12:16;;;;;;;6.63;5.25;;;;;;;;;;4988632;28;20039;-41
2021/07/08 02:14:43;;;;;;;9.93;5.10;;;;;;;;;;4989834;28;20043;-44
2021/07/08 02:17:10;;;;;;;7.53;5.53;;;;;;;;;;4991314;28;20046;-44
2021/07/08 02:19:36;;;;;;;7.15;5.47;;;;;;;;;;4991067;28;20610;-41
2021/07/08 02:22:03;;;;;;;8.07;5.68;;;;;;;;;;4988546;28;20120;-41
2021/07/08 02:24:30;;;;;;;6.13;5.53;;;;;;;;;;4983373;28;20130;-41
2021/07/08 02:26:57;;;;;;;8.20;5.47;;;;;;;;;;5009418;28;20117;-44
2021/07/08 02:29:23;;;;;;;6.47;5.68;;;;;;;;;;4996593;28;20038;-44
2021/07/08 02:31:50;;;;;;;6.05;5.30;;;;;;;;;;4992813;28;20042;-46
2021/07/08 02:34:17;;;;;;;5.97;5.18;;;;;;;;;;4997605;28;20042;-43
2021/07/08 02:36:43;;;;;;;7.43;5.43;;;;;;;;;;5002495;28;20046;-43
2021/07/08 02:39:10;;;;;;;5.78;4.80;;;;;;;;;;4980676;28;20149;-45
2021/07/08 02:41:37;;;;;;;5.80;4.93;;;;;;;;;;4987070;28;20046;-45
2021/07/08 02:44:04;;;;;;;5.30;4.68;;;;;;;;;;5002694;28;20169;-43
2021/07/08 02:46:31;;;;;;;5.82;5.22;;;;;;;;;;4994832;28;20046;-45
2021/07/08 02:48:58;;;;;;;6.93;5.28;;;;;;;;;;4990151;28;20071;-45
2021/07/08 02:51:24;;;;;;;5.82;4.32;;;;;;;;;;4980840;28;20569;-45
2021/07/08 02:53:51;;;;;;;8.05;5.38;;;;;;;;;;4986438;28;20051;-46
2021/07/08 02:56:18;;;;;;;5.80;5.20;;;;;;;;;;4996031;28;20052;-45
2021/07/08 02:58:45;;;;;;;5.47;4.38;;;;;;;;;;5002831;28;20446;-44
2021/07/08 03:01:12;;;;;;;5.30;4.80;;;;;;;;;;5008052;28;20046;-47
2021/07/08 03:03:39;;;;;;;5.38;4.88;;;;;;;;;;4976878;28;20412;-44
2021/07/08 03:06:05;;;;;;;9.10;5.20;;;;;;;;;;4981882;28;20046;-46
2021/07/08 03:08:32;;;;;;;6.53;4.30;;;;;;;;;;4993174;28;20052;-48
2021/07/08 03:10:59;;;;;;;5.07;4.50;;;;;;;;;;5008977;28;20156;-43
2021/07/08 03:13:26;;;;;;;6.50;4.88;;;;;;;;;;4978876;28;20504;-45
2021/07/08 03:15:52;;;;;;;6.72;5.05;;;;;;;;;;4978470;28;20046;-44
2021/07/08 03:18:19;;;;;;;5.90;5.30;;;;;;;;;;4994115;28;20507;-45
2021/07/08 03:20:47;;;;;;;5.88;4.78;;;;;;;;;;4988969;28;20061;-46
2021/07/08 03:23:14;;;;;;;5.72;5.13;;;;;;;;;;4991705;28;20034;-46
2021/07/08 03:25:41;;;;;;;7.38;4.97;;;;;;;;;;4989433;28;20046;-45
2021/07/08 03:28:08;;;;;;;8.43;5.60;;;;;;;;;;5002304;28;20042;-44
2021/07/08 03:30:34;;;;;;;7.28;5.32;;;;;;;;;;5007903;28;20038;-47
2021/07/08 03:33:03;;;;;;;6.22;5.10;;;;;;;;;;4983169;28;20047;-48
2021/07/08 03:35:31;;;;;;;5.60;4.45;;;;;;;;;;4974657;28;20051;-44
2021/07/08 03:37:58;;;;;;;4.78;4.10;;;;;;;;;;4990952;28;20077;-47
2021/07/08 03:40:26;;;;;;;6.25;4.72;;;;;;;;;;4990056;28;20408;-46
2021/07/08 03:42:53;;;;;;;5.20;4.70;;;;;;;;;;5010797;28;20049;-46
2021/07/08 03:45:21;;;;;;;6.75;4.40;;;;;;;;;;5011713;28;20073;-47
2021/07/08 03:47:47;;;;;;;6.03;3.97;;;;;;;;;;5000698;28;20397;-44
2021/07/08 03:50:14;;;;;;;7.85;4.28;;;;;;;;;;4989028;28;20113;-45
2021/07/08 03:52:42;;;;;;;4.80;4.30;;;;;;;;;;4988715;28;20046;-44
2021/07/08 03:55:10;;;;;;;6.90;4.22;;;;;;;;;;5005470;28;20034;-50
2021/07/08 03:57:52;;;;;;;8.32;4.90;;;;;;;;;;4996934;28;20060;-46
2021/07/08 04:00:29;;;;;;;8.32;4.90;;;;;;;;;;5005998;28;20034;-45
2021/07/08 04:03:00;;;;;;;5.95;4.78;;;;;;;;;;5002049;28;20053;-45
2021/07/08 04:05:27;;;;;;;7.78;5.15;;;;;;;;;;4993736;28;20129;-44
2021/07/08 04:07:54;;;;;;;6.53;5.25;;;;;;;;;;5003354;28;20112;-44
2021/07/08 04:10:22;;;;;;;5.88;5.05;;;;;;;;;;5006174;28;20046;-43
2021/07/08 04:12:48;;;;;;;5.93;5.03;;;;;;;;;;4973771;28;20043;-48
2021/07/08 04:15:16;;;;;;;6.63;5.57;;;;;;;;;;4974204;28;20043;-45
2021/07/08 04:17:43;;;;;;;7.88;5.72;;;;;;;;;;5005763;28;20042;-43
2021/07/08 04:20:11;;;;;;;6.30;5.65;;;;;;;;;;4993590;28;20034;-47
2021/07/08 04:22:37;;;;;;;5.57;4.97;;;;;;;;;;4997583;28;20447;-44
2021/07/08 04:25:05;;;;;;;8.38;5.30;;;;;;;;;;5010233;28;20034;-45
2021/07/08 04:27:32;;;;;;;6.75;5.35;;;;;;;;;;5010120;28;20052;-45
2021/07/08 04:29:59;;;;;;;7.75;5.53;;;;;;;;;;5004850;28;20117;-45
2021/07/08 04:32:26;;;;;;;11.50;5.68;;;;;;;;;;4987818;28;20081;-46
2021/07/08 04:34:52;;;;;;;10.88;5.43;;;;;;;;;;4998796;28;20047;-45
2021/07/08 04:37:20;;;;;;;6.80;5.57;;;;;;;;;;5012718;28;20116;-47
2021/07/08 04:39:48;;;;;;;7.20;5.40;;;;;;;;;;4999140;28;20065;-44
2021/07/08 04:42:15;;;;;;;7.03;5.03;;;;;;;;;;4981825;28;20133;-44
2021/07/08 04:44:44;;;;;;;5.47;4.88;;;;;;;;;;4980810;28;20043;-43
2021/07/08 04:47:11;;;;;;;6.97;5.32;;;;;;;;;;4986982;28;20148;-44
2021/07/08 04:49:38;;;;;;;7.13;5.68;;;;;;;;;;4976637;28;20121;-45
2021/07/08 04:52:05;;;;;;;8.30;5.57;;;;;;;;;;4999013;28;20050;-44
2021/07/08 04:54:32;;;;;;;6.63;5.97;;;;;;;;;;5006883;28;20046;-45
2021/07/08 04:56:59;;;;;;;8.98;6.63;;;;;;;;;;5010889;28;20054;-45
2021/07/08 04:59:25;;;;;;;9.38;6.28;;;;;;;;;;4995192;28;20046;-46
2021/07/08 05:01:52;;;;;;;10.98;7.10;;;;;;;;;;4995934;28;20076;-45
2021/07/08 05:04:19;;;;;;;7.80;6.43;;;;;;;;;;5012027;28;20042;-45
2021/07/08 05:06:46;;;;;;;10.45;9.35;;;;;;;;;;4994865;28;20054;-45
2021/07/08 05:09:13;;;;;;;11.57;9.32;;;;;;;;;;4986604;28;20125;-46
2021/07/08 05:11:42;;;;;;;10.10;9.10;;;;;;;;;;4985929;28;20411;-45
2021/07/08 05:14:09;;;;;;;9.88;8.88;;;;;;;;;;4990767;28;20636;-44
2021/07/08 05:16:35;;;;;;;11.50;9.95;;;;;;;;;;4989830;28;20062;-43
2021/07/08 05:19:03;;;;;;;11.45;9.77;;;;;;;;;;4979809;28;20085;-47
2021/07/08 05:21:29;;;;;;;11.43;10.20;;;;;;;;;;4978990;28;20046;-45
2021/07/08 05:23:59;;;;;;;11.77;10.40;;;;;;;;;;4992186;28;20514;-45
2021/07/08 05:26:26;;;;;;;11.57;10.38;;;;;;;;;;5006189;28;20415;-46
2021/07/08 05:28:53;;;;;;;12.77;11.40;;;;;;;;;;4992137;28;20068;-45
2021/07/08 05:31:20;;;;;;;12.57;11.27;;;;;;;;;;4986246;28;20493;-43
2021/07/08 05:33:47;;;;;;;13.93;12.50;;;;;;;;;;5010734;28;20050;-45
2021/07/08 05:36:14;;;;;;;13.38;11.93;;;;;;;;;;5009344;28;20050;-44
2021/07/08 05:38:41;;;;;;;15.23;12.40;;;;;;;;;;5003066;28;20034;-44
2021/07/08 05:41:08;;;;;;;13.80;12.32;;;;;;;;;;4970830;28;20059;-44
2021/07/08 05:43:35;;;;;;;14.40;12.23;;;;;;;;;;4979240;28;20042;-46
2021/07/08 05:46:02;;;;;;;13.77;12.15;;;;;;;;;;4994220;28;20209;-46
2021/07/08 05:48:29;;;;;;;14.18;12.70;;;;;;;;;;4994050;28;20038;-47
2021/07/08 05:50:55;;;;;;;15.15;12.85;;;;;;;;;;4991683;28;20042;-45
2021/07/08 05:53:23;;;;;;;15.27;13.77;;;;;;;;;;4985755;28;20061;-46
2021/07/08 05:55:50;;;;;;;15.57;13.98;;;;;;;;;;4989638;28;20046;-45
2021/07/08 05:58:17;;;;;;;15.95;13.15;;;;;;;;;;4988850;28;20117;-44
2021/07/08 06:00:43;;;;;;;15.10;13.48;;;;;;;;;;4999846;28;20058;-43
2021/07/08 06:03:10;;;;;;;16.52;14.82;;;;;;;;;;5006965;28;20120;-44
2021/07/08 06:05:37;;;;;;;15.10;13.57;;;;;;;;;;5011562;28;20034;-45
2021/07/08 06:08:08;;;;;;;15.55;13.90;;;;;;;;;;5005053;28;20046;-48
2021/07/08 06:10:35;;;;;;;15.18;13.68;;;;;;;;;;4986115;28;20074;-47
2021/07/08 06:13:02;;;;;;;15.98;13.68;;;;;;;;;;4992119;28;20052;-47
2021/07/08 06:15:30;;;;;;;19.05;14.55;;;;;;;;;;4989693;28;20397;-45
2021/07/08 06:17:57;;;;;;;20.77;15.90;;;;;;;;;;4991881;28;20134;-45
2021/07/08 06:20:24;;;;;;;17.15;15.40;;;;;;;;;;4985792;28;20062;-43
2021/07/08 06:22:50;;;;;;;18.05;16.15;;;;;;;;;;4982503;28;20507;-44
2021/07/08 06:25:18;;;;;;;16.58;14.55;;;;;;;;;;4980621;28;20038;-45
2021/07/08 06:27:45;;;;;;;17.77;15.75;;;;;;;;;;4998560;28;20216;-44
2021/07/08 06:30:12;;;;;;;17.05;15.25;;;;;;;;;;5007795;28;20521;-45
2021/07/08 06:32:39;;;;;;;17.58;15.75;;;;;;;;;;4999301;28;20218;-43
2021/07/08 06:35:13;;;;;;;15.90;14.30;;;;;;;;;;4990284;28;20038;-45
2021/07/08 06:37:39;;;;;;;18.42;16.30;;;;;;;;;;5005163;28;20081;-43
2021/07/08 06:40:06;;;;;;;19.75;17.33;;;;;;;;;;5011345;28;20128;-43
2021/07/08 06:42:34;;;;;;;23.10;17.63;;;;;;;;;;4992540;28;20571;-44
2021/07/08 06:45:01;;;;;;;20.73;17.55;;;;;;;;;;4995693;28;20065;-45
2021/07/08 06:47:37;;;;;;;20.02;16.63;;;;;;;;;;5007420;28;20061;-44
2021/07/08 06:50:05;;;;;;;22.67;18.10;;;;;;;;;;5015017;28;20054;-46
2021/07/08 06:52:32;;;;;;;19.08;16.65;;;;;;;;;;5003039;28;20116;-45
2021/07/08 06:54:59;;;;;;;18.00;16.10;;;;;;;;;;4977668;28;20130;-45
2021/07/08 06:57:25;;;;;;;20.60;17.27;;;;;;;;;;4994320;28;20075;-45
2021/07/08 06:59:53;;;;;;;24.55;18.48;;;;;;;;;;4998677;28;20066;-43
2021/07/08 07:02:20;;;;;;;26.02;19.00;;;;;;;;;;4994707;28;20090;-42
2021/07/08 07:04:46;;;;;;;25.98;19.38;;;;;;;;;;4998747;28;20097;-45
2021/07/08 07:07:15;;;;;;;23.85;19.92;;;;;;;;;;4983380;28;20121;-44
2021/07/08 07:09:42;;;;;;;30.17;23.33;;;;;;;;;;4993402;28;20046;-42
2021/07/08 07:12:09;;;;;;;29.33;23.60;;;;;;;;;;4992550;28;20569;-42
2021/07/08 07:14:36;;;;;;;34.25;24.23;;;;;;;;;;4988820;28;20468;-44
2021/07/08 07:17:02;;;;;;;30.65;25.30;;;;;;;;;;5002301;28;20108;-46
2021/07/08 07:19:29;;;;;;;26.60;22.85;;;;;;;;;;5008744;28;20042;-45
2021/07/08 07:22:00;;;;;;;30.40;23.48;;;;;;;;;;4995122;28;20392;-44
2021/07/08 07:24:27;;;;;;;22.95;19.90;;;;;;;;;;4987763;28;20043;-45
2021/07/08 07:26:54;;;;;;;26.55;21.85;;;;;;;;;;5012195;28;20467;-45
2021/07/08 07:29:20;;;;;;;33.33;28.08;;;;;;;;;;5003023;28;20142;-47
2021/07/08 07:31:47;;;;;;;31.20;26.40;;;;;;;;;;4994489;28;20129;-48
2021/07/08 07:34:15;;;;;;;33.72;26.45;;;;;;;;;;4996418;28;20419;-44
2021/07/08 07:36:42;;;;;;;31.98;26.27;;;;;;;;;;4993697;28;20048;-47
2021/07/08 07:39:09;;;;;;;33.85;26.33;;;;;;;;;;4996473;28;20061;-46
2021/07/08 07:41:35;;;;;;;36.45;27.83;;;;;;;;;;4996125;28;20141;-44
2021/07/08 07:44:02;;;;;;;38.72;29.48;;;;;;;;;;4997127;28;20041;-44
2021/07/08 07:46:29;;;;;;;31.00;26.23;;;;;;;;;;5002063;28;20499;-45
2021/07/08 07:48:56;;;;;;;39.20;27.55;;;;;;;;;;5014047;28;20038;-44
2021/07/08 07:51:22;;;;;;;35.75;28.58;;;;;;;;;;4992776;28;20038;-44
2021/07/08 07:53:49;;;;;;;37.08;27.88;;;;;;;;;;4990198;28;20109;-42
2021/07/08 07:56:16;;;;;;;31.52;26.15;;;;;;;;;;4980420;28;20116;-45
2021/07/08 07:58:43;;;;;;;32.33;25.95;;;;;;;;;;5000710;28;20066;-45
2021/07/08 08:01:10;;;;;;;31.02;25.58;;;;;;;;;;4994942;28;20127;-46
2021/07/08 08:03:39;;;;;;;31.20;24.83;;;;;;;;;;5007696;28;20574;-44
2021/07/08 08:08:51;;;;;;;26.55;23.17;;;;;;;;;;4985488;28;20231;-47
2021/07/08 08:11:19;;;;;;;26.23;23.08;;;;;;;;;;4992395;28;20056;-45
2021/07/08 08:13:49;;;;;;;29.52;25.23;;;;;;;;;;4993458;28;20030;-44
2021/07/08 08:16:16;;;;;;;30.50;24.55;;;;;;;;;;4995626;28;20049;-44
2021/07/08 08:18:43;;;;;;;31.52;26.02;;;;;;;;;;5005799;28;20041;-48
2021/07/08 08:21:12;;;;;;;32.08;26.42;;;;;;;;;;4997062;28;20050;-44
2021/07/08 08:23:39;;;;;;;32.38;27.45;;;;;;;;;;4988260;28;20045;-46
2021/07/08 08:26:06;;;;;;;31.55;25.58;;;;;;;;;;4993947;28;20405;-43
2021/07/08 08:28:34;;;;;;;31.50;27.10;;;;;;;;;;4994048;28;20137;-46
2021/07/08 08:31:01;;;;;;;29.40;26.30;;;;;;;;;;4995749;28;20042;-48
2021/07/08 08:33:27;;;;;;;32.00;27.13;;;;;;;;;;4991823;28;20049;-48
2021/07/08 08:35:54;;;;;;;33.85;26.65;;;;;;;;;;5009941;28;20050;-44
2021/07/08 08:38:21;;;;;;;28.60;25.60;;;;;;;;;;4998597;28;20443;-43
2021/07/08 08:40:49;;;;;;;28.65;25.55;;;;;;;;;;4991879;28;20121;-45
2021/07/08 08:43:16;;;;;;;31.75;26.42;;;;;;;;;;4976104;28;20130;-43
2021/07/08 08:45:45;;;;;;;29.75;26.52;;;;;;;;;;5011587;28;20060;-43
2021/07/08 08:48:11;;;;;;;28.88;25.77;;;;;;;;;;5009235;28;20045;-45
2021/07/08 08:50:39;;;;;;;28.33;25.25;;;;;;;;;;4978190;28;20047;-43
2021/07/08 08:53:07;;;;;;;33.65;26.15;;;;;;;;;;4988854;28;20083;-43
2021/07/08 08:55:35;;;;;;;29.92;25.42;;;;;;;;;;4989765;28;20078;-42
2021/07/08 08:58:05;;;;;;;29.42;26.23;;;;;;;;;;5006207;28;20069;-43
2021/07/08 09:00:44;;;;;;;30.02;26.73;;;;;;;;;;5005761;28;20586;-42
2021/07/08 09:03:27;;;;;;;32.72;29.33;;;;;;;;;;5001393;28;20117;-44
2021/07/08 09:06:05;;;;;;;34.13;30.45;;;;;;;;;;5004782;28;20072;-43
2021/07/08 09:08:36;;;;;;;35.72;31.65;;;;;;;;;;4973520;28;20051;-45
2021/07/08 09:11:22;;;;;;;35.63;31.83;;;;;;;;;;4959198;28;20097;-48
2021/07/08 09:13:53;;;;;;;35.38;30.55;;;;;;;;;;4997182;28;20415;-43
2021/07/08 09:16:27;;;;;;;34.78;31.38;;;;;;;;;;4996197;28;20056;-43
2021/07/08 09:19:00;;;;;;;36.17;32.08;;;;;;;;;;5011085;28;20060;-44
2021/07/08 09:21:28;;;;;;;38.65;33.72;;;;;;;;;;4994970;28;20380;-44
2021/07/08 09:24:00;;;;;;;37.40;32.88;;;;;;;;;;4982189;28;20126;-43
2021/07/08 09:26:27;;;;;;;;;;;;;;;;;;4992852;28;21697;-43
2021/07/08 09:29:24;;;;;;;34.13;30.52;;;;;;;;;;5008532;28;19921;-45
2021/07/08 09:31:58;;;;;;;36.67;32.72;;;;;;;;;;4998226;28;20049;-45
2021/07/08 09:34:30;;;;;;;33.85;30.15;;;;;;;;;;4992794;28;20523;-43
2021/07/08 09:37:07;;;;;;;35.75;31.73;;;;;;;;;;4992229;28;20534;-45
2021/07/08 09:39:36;;;;;;;33.85;30.45;;;;;;;;;;5005120;28;20041;-45
2021/07/08 09:42:03;;;;;;;37.58;33.58;;;;;;;;;;4993450;28;20477;-44
2021/07/08 09:44:30;;;;;;;33.50;29.55;;;;;;;;;;5012096;28;20042;-44
2021/07/08 09:46:57;;;;;;;34.65;30.83;;;;;;;;;;4993099;28;20137;-44
2021/07/08 09:49:27;;;;;;;35.75;31.65;;;;;;;;;;4991059;28;20051;-43
2021/07/08 09:51:54;;;;;;;36.03;32.10;;;;;;;;;;5008564;28;20065;-45
2021/07/08 09:55:47;;;;;;;36.15;32.17;;;;;;;;;;4994492;28;20042;-43
2021/07/08 09:57:40;;;;;;;34.45;30.77;;;;;;;;;;4983694;28;20507;-43
2021/07/08 10:00:22;;;;;;;34.92;31.20;;;;;;;;;;4990115;28;20395;-43
2021/07/08 10:02:50;;;;;;;34.65;31.15;;;;;;;;;;4998537;28;20093;-48
2021/07/08 10:05:17;;;;;;;32.05;28.90;;;;;;;;;;5011853;28;20038;-43
2021/07/08 10:07:46;;;;;;;34.38;31.00;;;;;;;;;;5010407;28;20045;-43
2021/07/08 10:10:15;;;;;;;33.53;30.17;;;;;;;;;;4993629;28;20432;-44
2021/07/08 10:12:45;;;;;;;34.67;31.17;;;;;;;;;;4972398;28;20079;-44
2021/07/08 10:15:13;;;;;;;34.22;29.83;;;;;;;;;;4993548;28;20167;-43
2021/07/08 10:17:40;;;;;;;30.42;27.42;;;;;;;;;;4975547;28;20046;-42
2021/07/08 10:20:09;;;;;;;32.50;28.98;;;;;;;;;;4973936;28;20047;-43
2021/07/08 10:22:37;;;;;;;30.60;27.35;;;;;;;;;;4993438;28;20044;-44
2021/07/08 10:25:04;;;;;;;30.05;26.83;;;;;;;;;;4987967;28;20126;-43
2021/07/08 10:27:31;;;;;;;29.15;26.20;;;;;;;;;;5001444;28;20042;-44
2021/07/08 10:29:59;;;;;;;28.80;26.10;;;;;;;;;;4997279;28;20146;-42
2021/07/08 10:32:27;;;;;;;29.90;26.67;;;;;;;;;;4988084;28;20060;-44
2021/07/08 10:34:53;;;;;;;27.48;24.67;;;;;;;;;;5003533;28;20130;-45
2021/07/08 10:37:39;;;;;;;26.17;23.52;;;;;;;;;;4992080;28;20566;-42
2021/07/08 10:40:29;;;;;;;27.73;25.02;;;;;;;;;;4982137;28;20085;-43
2021/07/08 10:43:08;;;;;;;25.55;23.13;;;;;;;;;;4996196;28;20550;-42
2021/07/08 10:45:35;;;;;;;26.10;23.40;;;;;;;;;;4990258;28;20065;-43
2021/07/08 10:48:10;;;;;;;26.70;24.13;;;;;;;;;;4990560;28;20454;-43
2021/07/08 10:50:38;;;;;;;28.92;26.00;;;;;;;;;;4990271;28;20104;-46
2021/07/08 10:53:24;;;;;;;28.27;25.48;;;;;;;;;;4995700;28;20135;-44
2021/07/08 10:56:03;;;;;;;26.13;23.70;;;;;;;;;;4975819;28;20129;-44
2021/07/08 10:58:42;;;;;;;25.92;23.33;;;;;;;;;;4990016;28;20052;-44
2021/07/08 11:01:21;;;;;;;27.05;24.27;;;;;;;;;;4990448;28;20093;-44
2021/07/08 11:03:52;;;;;;;25.25;22.58;;;;;;;;;;4989447;28;20120;-45
2021/07/08 11:06:18;;;;;;;25.38;22.98;;;;;;;;;;5005604;28;20129;-43
2021/07/08 11:08:59;;;;;;;25.02;22.52;;;;;;;;;;5010545;28;20061;-42
2021/07/08 11:11:26;;;;;;;27.30;24.70;;;;;;;;;;4991938;28;20054;-43
2021/07/08 11:13:54;;;;;;;24.08;21.77;;;;;;;;;;4989565;28;20061;-43
2021/07/08 11:16:40;;;;;;;24.02;21.70;;;;;;;;;;4992506;28;20491;-44
2021/07/08 11:19:07;;;;;;;22.38;20.30;;;;;;;;;;5000012;28;20043;-45
2021/07/08 11:21:49;;;;;;;25.17;22.52;;;;;;;;;;4981864;28;20042;-46
2021/07/08 11:24:16;;;;;;;27.77;24.92;;;;;;;;;;4976949;28;20549;-43
2021/07/08 11:26:49;;;;;;;28.13;25.20;;;;;;;;;;4989111;28;20046;-44
2021/07/08 11:29:31;;;;;;;28.05;25.10;;;;;;;;;;4999769;23;20049;-43
2021/07/08 11:31:58;;;;;;;28.90;26.00;;;;;;;;;;4991375;28;20099;-47
2021/07/08 11:34:26;;;;;;;28.75;25.75;;;;;;;;;;5008911;28;20057;-43
2021/07/08 11:36:54;;;;;;;28.30;25.38;;;;;;;;;;4994144;28;20133;-42
2021/07/08 11:39:25;;;;;;;28.95;26.02;;;;;;;;;;4975874;28;20057;-45
2021/07/08 11:41:59;;;;;;;31.90;25.17;;;;;;;;;;4982742;28;20043;-45
2021/07/08 11:44:31;;;;;;;27.30;24.50;;;;;;;;;;4993326;28;20133;-42
2021/07/08 11:46:59;;;;;;;28.08;25.13;;;;;;;;;;4987774;28;20119;-45
2021/07/08 11:49:26;;;;;;;29.48;26.42;;;;;;;;;;4976361;28;20134;-47
2021/07/08 11:51:53;;;;;;;30.92;26.95;;;;;;;;;;4996315;28;20466;-44
2021/07/08 11:54:19;;;;;;;29.05;25.98;;;;;;;;;;4980204;28;20042;-47
2021/07/08 11:56:46;;;;;;;30.08;26.92;;;;;;;;;;4994815;28;20042;-46
2021/07/08 11:59:13;;;;;;;30.15;27.05;;;;;;;;;;4992937;28;20054;-45
2021/07/08 12:01:40;;;;;;;27.88;25.08;;;;;;;;;;4989787;28;20054;-44
2021/07/08 12:04:19;;;;;;;28.88;25.98;;;;;;;;;;4992335;28;20039;-43
2021/07/08 12:06:46;;;;;;;29.60;26.55;;;;;;;;;;4994607;28;20077;-46
2021/07/08 12:09:15;;;;;;;30.35;27.20;;;;;;;;;;4990142;28;20476;-43
2021/07/08 12:11:43;;;;;;;29.15;25.75;;;;;;;;;;4978553;28;20141;-44
2021/07/08 12:14:10;;;;;;;27.75;24.42;;;;;;;;;;4993391;28;20035;-44
2021/07/08 12:16:38;;;;;;;26.92;24.15;;;;;;;;;;4993577;28;20562;-43
2021/07/08 12:19:06;;;;;;;27.40;24.52;;;;;;;;;;4991694;28;20050;-46
2021/07/08 12:21:38;;;;;;;27.45;24.50;;;;;;;;;;4991950;28;20125;-42
2021/07/08 12:24:05;;;;;;;25.65;23.00;;;;;;;;;;4985255;28;20133;-44
2021/07/08 12:26:36;;;;;;;28.65;23.40;;;;;;;;;;4990719;28;20061;-44
2021/07/08 12:29:16;;;;;;;29.08;23.42;;;;;;;;;;4981489;28;20039;-43
2021/07/08 12:32:06;;;;;;;22.85;20.45;;;;;;;;;;4988365;28;20052;-43
2021/07/08 12:34:38;;;;;;;23.08;18.08;;;;;;;;;;4989217;28;20046;-44
2021/07/08 12:37:13;;;;;;;17.27;15.40;;;;;;;;;;4993449;28;20050;-44
2021/07/08 12:39:40;;;;;;;;;;;;;;;;;;4993503;28;20047;-43
2021/07/08 12:42:35;;;;;;;13.80;11.18;;;;;;;;;;4978837;28;19933;-43
2021/07/08 12:45:20;;;;;;;12.32;7.43;;;;;;;;;;4983490;28;20666;-44
2021/07/08 12:47:48;;;;;;;9.40;8.40;;;;;;;;;;4992208;28;20133;-44
2021/07/08 12:50:15;;;;;;;8.10;7.30;;;;;;;;;;4984729;28;20066;-43
2021/07/08 12:52:43;;;;;;;8.55;4.18;;;;;;;;;;4987791;28;20085;-42
2021/07/08 12:55:29;;;;;;;5.85;4.25;;;;;;;;;;4993211;28;20050;-42
2021/07/08 12:58:02;;;;;;;4.85;4.35;;;;;;;;;;4992582;28;20140;-43
2021/07/08 13:00:29;;;;;;;4.95;3.92;;;;;;;;;;4991374;28;20038;-42
2021/07/08 13:02:56;;;;;;;5.45;4.28;;;;;;;;;;4988820;28;20041;-43
2021/07/08 13:05:32;;;;;;;4.57;4.10;;;;;;;;;;4991029;28;20030;-44
2021/07/08 13:07:59;;;;;;;6.63;4.90;;;;;;;;;;4991045;28;20428;-43
2021/07/08 13:10:33;;;;;;;6.70;5.10;;;;;;;;;;4992070;28;20455;-44
2021/07/08 13:13:09;;;;;;;;;;;;;;;;;;4990846;28;20046;-42
2021/07/08 13:15:41;;;;;;;7.07;5.80;;;;;;;;;;4991011;28;19952;-41
2021/07/08 13:18:09;;;;;;;5.65;5.07;;;;;;;;;;4991094;28;20082;-41
2021/07/08 13:20:38;;;;;;;10.65;8.00;;;;;;;;;;4984665;28;20046;-43
2021/07/08 13:23:10;;;;;;;8.50;7.63;;;;;;;;;;4986274;28;20062;-44
2021/07/08 13:25:38;;;;;;;7.78;6.50;;;;;;;;;;4991713;28;20073;-44
2021/07/08 13:28:16;;;;;;;6.07;5.47;;;;;;;;;;5005869;28;20050;-42
2021/07/08 13:30:45;;;;;;;7.25;6.22;;;;;;;;;;5008024;28;20046;-46
2021/07/08 13:33:13;;;;;;;8.18;6.50;;;;;;;;;;4987340;28;20100;-43
2021/07/08 13:35:50;;;;;;;8.60;7.30;;;;;;;;;;4992583;28;20066;-43
2021/07/08 13:38:24;;;;;;;9.02;7.70;;;;;;;;;;4990423;28;20487;-42
2021/07/08 13:40:58;;;;;;;10.82;8.75;;;;;;;;;;4984971;28;20038;-43
2021/07/08 13:43:44;;;;;;;9.73;8.73;;;;;;;;;;4987989;28;20431;-42
2021/07/08 13:46:16;;;;;;;8.13;6.22;;;;;;;;;;4982503;28;20045;-43
2021/07/08 13:48:44;;;;;;;7.03;5.82;;;;;;;;;;4990821;28;20073;-42
2021/07/08 13:51:11;;;;;;;4.60;3.88;;;;;;;;;;4981084;28;20496;-41
2021/07/08 13:53:38;;;;;;;4.97;4.13;;;;;;;;;;4981425;28;20078;-41
2021/07/08 13:56:06;;;;;;;5.70;4.43;;;;;;;;;;4972427;28;20130;-40
2021/07/08 13:58:33;;;;;;;6.25;5.07;;;;;;;;;;4973067;28;20063;-40
2021/07/08 14:01:00;;;;;;;6.38;5.18;;;;;;;;;;4991452;28;20046;-40
2021/07/08 14:03:27;;;;;;;7.72;6.93;;;;;;;;;;4973717;28;20047;-42
2021/07/08 14:05:54;;;;;;;8.30;6.78;;;;;;;;;;4972291;28;20130;-46
2021/07/08 14:08:21;;;;;;;8.02;7.18;;;;;;;;;;4988425;28;20192;-43
2021/07/08 14:10:48;;;;;;;7.95;6.50;;;;;;;;;;4991631;28;20164;-41
2021/07/08 14:13:15;;;;;;;6.40;5.40;;;;;;;;;;4975202;28;20050;-44
2021/07/08 14:15:41;;;;;;;6.57;4.70;;;;;;;;;;4991570;28;20051;-43
2021/07/08 14:18:08;;;;;;;6.75;3.97;;;;;;;;;;4991353;28;20089;-42
2021/07/08 14:20:35;;;;;;;5.60;4.30;;;;;;;;;;4979599;28;20061;-43
2021/07/08 14:23:02;;;;;;;6.43;3.55;;;;;;;;;;4971217;28;20129;-45
2021/07/08 14:25:28;;;;;;;3.75;3.03;;;;;;;;;;4973388;28;20491;-46
2021/07/08 14:27:55;;;;;;;4.88;2.70;;;;;;;;;;4991585;28;20035;-40
2021/07/08 14:30:26;;;;;;;4.85;3.13;;;;;;;;;;4991522;28;20046;-41
2021/07/08 14:32:53;;;;;;;4.05;2.42;;;;;;;;;;4985992;28;20470;-40
2021/07/08 14:35:20;;;;;;;3.83;1.80;;;;;;;;;;4991497;28;20125;-43
2021/07/08 14:37:46;;;;;;;2.90;1.70;;;;;;;;;;4991390;28;20488;-44
2021/07/08 14:40:13;;;;;;;3.35;1.63;;;;;;;;;;4986352;28;20074;-42
2021/07/08 14:42:44;;;;;;;1.77;1.20;;;;;;;;;;4989974;28;20047;-42
2021/07/08 14:45:13;;;;;;;3.58;2.10;;;;;;;;;;4991370;28;20066;-40